sensor_id;sensor_type;location;lat;lon;timestamp;temperature;humidity
22544;DHT22;11438;52.044;8.716;2024-01-15T00:00:39;5.10;99.90
22544;DHT22;11438;52.044;8.716;2024-01-15T00:03:04;5.10;99.90
22544;DHT22;11438;52.044;8.716;2024-01-15T00:05:30;5.10;99.90
22544;DHT22;11438;52.044;8.716;2024-01-15T00:07:55;5.10;99.90
22544;DHT22;11438;52.044;8.716;2024-01-15T00:10:21;5.10;99.90
22544;DHT22;11438;52.044;8.716;2024-01-15T00:12:46;5.20;99.90
22544;DHT22;11438;52.044;8.716;2024-01-15T00:15:12;5.20;99.90
22544;DHT22;11438;52.044;8.716;2024-01-15T00:17:37;5.20;99.90
22544;DHT22;11438;52.044;8.716;2024-01-15T00:20:03;5.20;99.90
22544;DHT22;11438;52.044;8.716;2024-01-15T00:22:29;5.20;99.90
22544;DHT22;11438;52.044;8.716;2024-01-15T00:24:54;5.20;99.90
22544;DHT22;11438;52.044;8.716;2024-01-15T00:27:20;5.30;99.90
22544;DHT22;11438;52.044;8.716;2024-01-15T00:29:45;5.30;99.90
22544;DHT22;11438;52.044;8.716;2024-01-15T00:32:11;5.30;99.90
22544;DHT22;11438;52.044;8.716;2024-01-15T00:34:36;5.30;99.90
22544;DHT22;11438;52.044;8.716;2024-01-15T00:37:02;5.30;99.90
22544;DHT22;11438;52.044;8.716;2024-01-15T00:39:28;5.20;99.90
22544;DHT22;11438;52.044;8.716;2024-01-15T00:41:53;5.20;99.90
22544;DHT22;11438;52.044;8.716;2024-01-15T00:44:19;5.20;99.90
22544;DHT22;11438;52.044;8.716;2024-01-15T00:46:45;5.20;99.90
22544;DHT22;11438;52.044;8.716;2024-01-15T00:49:13;5.20;99.90
22544;DHT22;11438;52.044;8.716;2024-01-15T00:51:39;5.20;99.90
22544;DHT22;11438;52.044;8.716;2024-01-15T00:54:05;5.20;99.90
22544;DHT22;11438;52.044;8.716;2024-01-15T00:56:31;5.20;99.90
22544;DHT22;11438;52.044;8.716;2024-01-15T00:58:56;5.20;99.90
22544;DHT22;11438;52.044;8.716;2024-01-15T01:01:22;5.20;99.90
22544;DHT22;11438;52.044;8.716;2024-01-15T01:03:47;5.10;99.90
22544;DHT22;11438;52.044;8.716;2024-01-15T01:06:13;5.10;99.90
22544;DHT22;11438;52.044;8.716;2024-01-15T01:08:39;5.10;99.90
22544;DHT22;11438;52.044;8.716;2024-01-15T01:11:05;5.10;99.90
22544;DHT22;11438;52.044;8.716;2024-01-15T01:13:32;5.10;99.90
22544;DHT22;11438;52.044;8.716;2024-01-15T01:15:58;5.10;99.90
22544;DHT22;11438;52.044;8.716;2024-01-15T01:18:23;5.10;99.90
22544;DHT22;11438;52.044;8.716;2024-01-15T01:20:49;5.10;99.90
22544;DHT22;11438;52.044;8.716;2024-01-15T01:23:14;5.10;99.90
22544;DHT22;11438;52.044;8.716;2024-01-15T01:25:40;5.10;99.90
22544;DHT22;11438;52.044;8.716;2024-01-15T01:28:05;5.10;99.90
22544;DHT22;11438;52.044;8.716;2024-01-15T01:30:31;5.10;99.90
22544;DHT22;11438;52.044;8.716;2024-01-15T01:32:56;5.10;99.90
22544;DHT22;11438;52.044;8.716;2024-01-15T01:35:22;5.10;99.90
22544;DHT22;11438;52.044;8.716;2024-01-15T01:37:48;5.10;99.90
22544;DHT22;11438;52.044;8.716;2024-01-15T01:40:14;5.10;99.90
22544;DHT22;11438;52.044;8.716;2024-01-15T01:42:39;5.10;99.90
22544;DHT22;11438;52.044;8.716;2024-01-15T01:45:05;5.10;99.90
22544;DHT22;11438;52.044;8.716;2024-01-15T01:47:31;5.20;99.90
22544;DHT22;11438;52.044;8.716;2024-01-15T01:49:57;5.20;99.90
22544;DHT22;11438;52.044;8.716;2024-01-15T01:52:23;5.20;99.90
22544;DHT22;11438;52.044;8.716;2024-01-15T01:54:49;5.20;99.90
22544;DHT22;11438;52.044;8.716;2024-01-15T01:57:15;5.20;99.90
22544;DHT22;11438;52.044;8.716;2024-01-15T01:59:42;5.20;99.90
22544;DHT22;11438;52.044;8.716;2024-01-15T02:02:08;5.20;99.90
22544;DHT22;11438;52.044;8.716;2024-01-15T02:04:33;5.20;99.90
22544;DHT22;11438;52.044;8.716;2024-01-15T02:06:59;5.20;99.90
22544;DHT22;11438;52.044;8.716;2024-01-15T02:09:25;5.20;99.90
22544;DHT22;11438;52.044;8.716;2024-01-15T02:11:51;5.20;99.90
22544;DHT22;11438;52.044;8.716;2024-01-15T02:14:16;5.20;99.90
22544;DHT22;11438;52.044;8.716;2024-01-15T02:16:42;5.20;99.90
22544;DHT22;11438;52.044;8.716;2024-01-15T02:19:15;5.20;99.90
22544;DHT22;11438;52.044;8.716;2024-01-15T02:21:41;5.30;99.90
22544;DHT22;11438;52.044;8.716;2024-01-15T02:24:06;5.30;99.90
22544;DHT22;11438;52.044;8.716;2024-01-15T02:26:32;5.30;99.90
22544;DHT22;11438;52.044;8.716;2024-01-15T02:29:01;5.30;99.90
22544;DHT22;11438;52.044;8.716;2024-01-15T02:31:27;5.30;99.90
22544;DHT22;11438;52.044;8.716;2024-01-15T02:33:52;5.30;99.90
22544;DHT22;11438;52.044;8.716;2024-01-15T02:36:18;5.30;99.90
22544;DHT22;11438;52.044;8.716;2024-01-15T02:38:43;5.20;99.90
22544;DHT22;11438;52.044;8.716;2024-01-15T02:41:09;5.20;99.90
22544;DHT22;11438;52.044;8.716;2024-01-15T02:43:34;5.20;99.90
22544;DHT22;11438;52.044;8.716;2024-01-15T02:46:00;5.20;99.90
22544;DHT22;11438;52.044;8.716;2024-01-15T02:48:25;5.30;99.90
22544;DHT22;11438;52.044;8.716;2024-01-15T02:50:51;5.30;99.90
22544;DHT22;11438;52.044;8.716;2024-01-15T02:53:16;5.30;99.90
22544;DHT22;11438;52.044;8.716;2024-01-15T02:55:42;5.30;99.90
22544;DHT22;11438;52.044;8.716;2024-01-15T02:58:07;5.30;99.90
22544;DHT22;11438;52.044;8.716;2024-01-15T03:00:33;5.30;99.90
22544;DHT22;11438;52.044;8.716;2024-01-15T03:02:58;5.30;99.90
22544;DHT22;11438;52.044;8.716;2024-01-15T03:05:24;5.30;99.90
22544;DHT22;11438;52.044;8.716;2024-01-15T03:07:49;5.30;99.90
22544;DHT22;11438;52.044;8.716;2024-01-15T03:10:15;5.30;99.90
22544;DHT22;11438;52.044;8.716;2024-01-15T03:12:40;5.30;99.90
22544;DHT22;11438;52.044;8.716;2024-01-15T03:15:06;5.30;99.90
22544;DHT22;11438;52.044;8.716;2024-01-15T03:17:31;5.30;99.90
22544;DHT22;11438;52.044;8.716;2024-01-15T03:19:57;5.30;99.90
22544;DHT22;11438;52.044;8.716;2024-01-15T03:22:22;5.30;99.90
22544;DHT22;11438;52.044;8.716;2024-01-15T03:24:48;5.30;99.90
22544;DHT22;11438;52.044;8.716;2024-01-15T03:27:13;5.30;99.90
22544;DHT22;11438;52.044;8.716;2024-01-15T03:29:41;5.30;99.90
22544;DHT22;11438;52.044;8.716;2024-01-15T03:32:06;5.30;99.90
22544;DHT22;11438;52.044;8.716;2024-01-15T03:34:32;5.30;99.90
22544;DHT22;11438;52.044;8.716;2024-01-15T03:36:57;5.30;99.90
22544;DHT22;11438;52.044;8.716;2024-01-15T03:39:24;5.30;99.90
22544;DHT22;11438;52.044;8.716;2024-01-15T03:41:50;5.30;99.90
22544;DHT22;11438;52.044;8.716;2024-01-15T03:44:15;5.30;99.90
22544;DHT22;11438;52.044;8.716;2024-01-15T03:46:41;5.30;99.90
22544;DHT22;11438;52.044;8.716;2024-01-15T03:49:06;5.30;99.90
22544;DHT22;11438;52.044;8.716;2024-01-15T03:51:32;5.30;99.90
22544;DHT22;11438;52.044;8.716;2024-01-15T03:53:57;5.30;99.90
22544;DHT22;11438;52.044;8.716;2024-01-15T03:56:23;5.30;99.90
22544;DHT22;11438;52.044;8.716;2024-01-15T03:58:48;5.30;99.90
22544;DHT22;11438;52.044;8.716;2024-01-15T04:01:14;5.30;99.90
22544;DHT22;11438;52.044;8.716;2024-01-15T04:03:39;5.30;99.90
22544;DHT22;11438;52.044;8.716;2024-01-15T04:06:05;5.30;99.90
22544;DHT22;11438;52.044;8.716;2024-01-15T04:08:30;5.30;99.90
22544;DHT22;11438;52.044;8.716;2024-01-15T04:10:56;5.30;99.90
22544;DHT22;11438;52.044;8.716;2024-01-15T04:13:22;5.30;99.90
22544;DHT22;11438;52.044;8.716;2024-01-15T04:15:47;5.30;99.90
22544;DHT22;11438;52.044;8.716;2024-01-15T04:18:16;5.30;99.90
22544;DHT22;11438;52.044;8.716;2024-01-15T04:20:41;5.30;99.90
22544;DHT22;11438;52.044;8.716;2024-01-15T04:23:07;5.30;99.90
22544;DHT22;11438;52.044;8.716;2024-01-15T04:25:32;5.30;99.90
22544;DHT22;11438;52.044;8.716;2024-01-15T04:27:58;5.30;99.90
22544;DHT22;11438;52.044;8.716;2024-01-15T04:30:24;5.30;99.90
22544;DHT22;11438;52.044;8.716;2024-01-15T04:32:49;5.30;99.90
22544;DHT22;11438;52.044;8.716;2024-01-15T04:35:15;5.30;99.90
22544;DHT22;11438;52.044;8.716;2024-01-15T04:37:40;5.30;99.90
22544;DHT22;11438;52.044;8.716;2024-01-15T04:40:07;5.30;99.90
22544;DHT22;11438;52.044;8.716;2024-01-15T04:42:32;5.30;99.90
22544;DHT22;11438;52.044;8.716;2024-01-15T04:44:58;5.40;99.90
22544;DHT22;11438;52.044;8.716;2024-01-15T04:47:24;5.40;99.90
22544;DHT22;11438;52.044;8.716;2024-01-15T04:49:49;5.30;99.90
22544;DHT22;11438;52.044;8.716;2024-01-15T04:52:15;5.30;99.90
22544;DHT22;11438;52.044;8.716;2024-01-15T04:54:40;5.40;99.90
22544;DHT22;11438;52.044;8.716;2024-01-15T04:57:06;5.40;99.90
22544;DHT22;11438;52.044;8.716;2024-01-15T04:59:31;5.40;99.90
22544;DHT22;11438;52.044;8.716;2024-01-15T05:01:57;5.40;99.90
22544;DHT22;11438;52.044;8.716;2024-01-15T05:04:22;5.40;99.90
22544;DHT22;11438;52.044;8.716;2024-01-15T05:06:49;5.50;99.90
22544;DHT22;11438;52.044;8.716;2024-01-15T05:09:15;5.50;99.90
22544;DHT22;11438;52.044;8.716;2024-01-15T05:11:40;5.50;99.90
22544;DHT22;11438;52.044;8.716;2024-01-15T05:14:06;5.50;99.90
22544;DHT22;11438;52.044;8.716;2024-01-15T05:16:31;5.50;99.90
22544;DHT22;11438;52.044;8.716;2024-01-15T05:18:57;5.50;99.90
22544;DHT22;11438;52.044;8.716;2024-01-15T05:21:22;5.50;99.90
22544;DHT22;11438;52.044;8.716;2024-01-15T05:23:48;5.50;99.90
22544;DHT22;11438;52.044;8.716;2024-01-15T05:26:13;5.40;99.90
22544;DHT22;11438;52.044;8.716;2024-01-15T05:28:41;5.40;99.90
22544;DHT22;11438;52.044;8.716;2024-01-15T05:31:08;5.50;99.90
22544;DHT22;11438;52.044;8.716;2024-01-15T05:33:33;5.50;99.90
22544;DHT22;11438;52.044;8.716;2024-01-15T05:35:59;5.40;99.90
22544;DHT22;11438;52.044;8.716;2024-01-15T05:38:24;5.40;99.90
22544;DHT22;11438;52.044;8.716;2024-01-15T05:40:50;5.40;99.90
22544;DHT22;11438;52.044;8.716;2024-01-15T05:43:15;5.40;99.90
22544;DHT22;11438;52.044;8.716;2024-01-15T05:45:43;5.40;99.90
22544;DHT22;11438;52.044;8.716;2024-01-15T05:48:08;5.40;99.90
22544;DHT22;11438;52.044;8.716;2024-01-15T05:50:34;5.40;99.90
22544;DHT22;11438;52.044;8.716;2024-01-15T05:53:00;5.40;99.90
22544;DHT22;11438;52.044;8.716;2024-01-15T05:55:25;5.40;99.90
22544;DHT22;11438;52.044;8.716;2024-01-15T05:57:51;5.40;99.90
22544;DHT22;11438;52.044;8.716;2024-01-15T06:00:17;5.40;99.90
22544;DHT22;11438;52.044;8.716;2024-01-15T06:02:42;5.30;99.90
22544;DHT22;11438;52.044;8.716;2024-01-15T06:05:08;5.30;99.90
22544;DHT22;11438;52.044;8.716;2024-01-15T06:07:36;5.40;99.90
22544;DHT22;11438;52.044;8.716;2024-01-15T06:10:03;5.40;99.90
22544;DHT22;11438;52.044;8.716;2024-01-15T06:12:30;5.40;99.90
22544;DHT22;11438;52.044;8.716;2024-01-15T06:14:56;5.40;99.90
22544;DHT22;11438;52.044;8.716;2024-01-15T06:17:21;5.40;99.90
22544;DHT22;11438;52.044;8.716;2024-01-15T06:19:47;5.30;99.90
22544;DHT22;11438;52.044;8.716;2024-01-15T06:22:12;5.40;99.90
22544;DHT22;11438;52.044;8.716;2024-01-15T06:24:37;5.40;99.90
22544;DHT22;11438;52.044;8.716;2024-01-15T06:27:03;5.30;99.90
22544;DHT22;11438;52.044;8.716;2024-01-15T06:29:30;5.30;99.90
22544;DHT22;11438;52.044;8.716;2024-01-15T06:31:55;5.30;99.90
22544;DHT22;11438;52.044;8.716;2024-01-15T06:34:20;5.30;99.90
22544;DHT22;11438;52.044;8.716;2024-01-15T06:36:46;5.30;99.90
22544;DHT22;11438;52.044;8.716;2024-01-15T06:39:12;5.30;99.90
22544;DHT22;11438;52.044;8.716;2024-01-15T06:41:37;5.40;99.90
22544;DHT22;11438;52.044;8.716;2024-01-15T06:44:11;5.30;99.90
22544;DHT22;11438;52.044;8.716;2024-01-15T06:46:41;5.40;99.90
22544;DHT22;11438;52.044;8.716;2024-01-15T06:49:06;5.40;99.90
22544;DHT22;11438;52.044;8.716;2024-01-15T06:51:32;5.40;99.90
22544;DHT22;11438;52.044;8.716;2024-01-15T06:53:57;5.30;99.90
22544;DHT22;11438;52.044;8.716;2024-01-15T06:56:23;5.30;99.90
22544;DHT22;11438;52.044;8.716;2024-01-15T06:58:48;5.30;99.90
22544;DHT22;11438;52.044;8.716;2024-01-15T07:01:14;5.30;99.90
22544;DHT22;11438;52.044;8.716;2024-01-15T07:03:39;5.30;99.90
22544;DHT22;11438;52.044;8.716;2024-01-15T07:06:05;5.30;99.90
22544;DHT22;11438;52.044;8.716;2024-01-15T07:08:31;5.30;99.90
22544;DHT22;11438;52.044;8.716;2024-01-15T07:10:56;5.20;99.90
22544;DHT22;11438;52.044;8.716;2024-01-15T07:13:22;5.20;99.90
22544;DHT22;11438;52.044;8.716;2024-01-15T07:15:47;5.20;99.90
22544;DHT22;11438;52.044;8.716;2024-01-15T07:18:13;5.20;99.90
22544;DHT22;11438;52.044;8.716;2024-01-15T07:20:38;5.20;99.90
22544;DHT22;11438;52.044;8.716;2024-01-15T07:23:04;5.20;99.90
22544;DHT22;11438;52.044;8.716;2024-01-15T07:25:29;5.20;99.90
22544;DHT22;11438;52.044;8.716;2024-01-15T07:27:55;5.20;99.90
22544;DHT22;11438;52.044;8.716;2024-01-15T07:30:21;5.20;99.90
22544;DHT22;11438;52.044;8.716;2024-01-15T07:32:47;5.20;99.90
22544;DHT22;11438;52.044;8.716;2024-01-15T07:35:15;5.20;99.90
22544;DHT22;11438;52.044;8.716;2024-01-15T07:37:41;5.20;99.90
22544;DHT22;11438;52.044;8.716;2024-01-15T07:40:06;5.20;99.90
22544;DHT22;11438;52.044;8.716;2024-01-15T07:42:34;5.20;99.90
22544;DHT22;11438;52.044;8.716;2024-01-15T07:44:59;5.20;99.90
22544;DHT22;11438;52.044;8.716;2024-01-15T07:47:25;5.20;99.90
22544;DHT22;11438;52.044;8.716;2024-01-15T07:49:51;5.30;99.90
22544;DHT22;11438;52.044;8.716;2024-01-15T07:52:16;5.30;99.90
22544;DHT22;11438;52.044;8.716;2024-01-15T07:54:42;5.30;99.90
22544;DHT22;11438;52.044;8.716;2024-01-15T07:57:07;5.30;99.90
22544;DHT22;11438;52.044;8.716;2024-01-15T07:59:35;5.30;99.90
22544;DHT22;11438;52.044;8.716;2024-01-15T08:02:00;5.30;99.90
22544;DHT22;11438;52.044;8.716;2024-01-15T08:04:26;5.30;99.90
22544;DHT22;11438;52.044;8.716;2024-01-15T08:06:51;5.20;99.90
22544;DHT22;11438;52.044;8.716;2024-01-15T08:09:17;5.30;99.90
22544;DHT22;11438;52.044;8.716;2024-01-15T08:11:43;5.30;99.90
22544;DHT22;11438;52.044;8.716;2024-01-15T08:14:09;5.30;99.90
22544;DHT22;11438;52.044;8.716;2024-01-15T08:16:36;5.30;99.90
22544;DHT22;11438;52.044;8.716;2024-01-15T08:19:01;5.30;99.90
22544;DHT22;11438;52.044;8.716;2024-01-15T08:21:27;5.30;99.90
22544;DHT22;11438;52.044;8.716;2024-01-15T08:23:57;5.30;99.90
22544;DHT22;11438;52.044;8.716;2024-01-15T08:26:23;5.30;99.90
22544;DHT22;11438;52.044;8.716;2024-01-15T08:28:49;5.30;99.90
22544;DHT22;11438;52.044;8.716;2024-01-15T08:31:14;5.30;99.90
22544;DHT22;11438;52.044;8.716;2024-01-15T08:33:40;5.30;99.90
22544;DHT22;11438;52.044;8.716;2024-01-15T08:36:05;5.30;99.90
22544;DHT22;11438;52.044;8.716;2024-01-15T08:38:31;5.30;99.90
22544;DHT22;11438;52.044;8.716;2024-01-15T08:40:56;5.30;99.90
22544;DHT22;11438;52.044;8.716;2024-01-15T08:43:24;5.30;99.90
22544;DHT22;11438;52.044;8.716;2024-01-15T08:45:50;5.40;99.90
22544;DHT22;11438;52.044;8.716;2024-01-15T08:48:16;5.40;99.90
22544;DHT22;11438;52.044;8.716;2024-01-15T08:50:42;5.40;99.90
22544;DHT22;11438;52.044;8.716;2024-01-15T08:53:08;5.40;99.90
22544;DHT22;11438;52.044;8.716;2024-01-15T08:55:33;5.40;99.90
22544;DHT22;11438;52.044;8.716;2024-01-15T08:57:59;5.40;99.90
22544;DHT22;11438;52.044;8.716;2024-01-15T09:00:24;5.40;99.90
22544;DHT22;11438;52.044;8.716;2024-01-15T09:02:50;5.40;99.90
22544;DHT22;11438;52.044;8.716;2024-01-15T09:05:15;5.40;99.90
22544;DHT22;11438;52.044;8.716;2024-01-15T09:07:41;5.40;99.90
22544;DHT22;11438;52.044;8.716;2024-01-15T09:10:06;5.40;99.90
22544;DHT22;11438;52.044;8.716;2024-01-15T09:12:32;5.40;99.90
22544;DHT22;11438;52.044;8.716;2024-01-15T09:14:57;5.40;99.90
22544;DHT22;11438;52.044;8.716;2024-01-15T09:17:23;5.40;99.90
22544;DHT22;11438;52.044;8.716;2024-01-15T09:19:49;5.50;99.90
22544;DHT22;11438;52.044;8.716;2024-01-15T09:22:15;5.50;99.90
22544;DHT22;11438;52.044;8.716;2024-01-15T09:24:44;5.40;99.90
22544;DHT22;11438;52.044;8.716;2024-01-15T09:27:09;5.40;99.90
22544;DHT22;11438;52.044;8.716;2024-01-15T09:29:35;5.40;99.90
22544;DHT22;11438;52.044;8.716;2024-01-15T09:32:03;5.40;99.90
22544;DHT22;11438;52.044;8.716;2024-01-15T09:34:29;5.40;99.90
22544;DHT22;11438;52.044;8.716;2024-01-15T09:36:55;5.40;99.90
22544;DHT22;11438;52.044;8.716;2024-01-15T09:39:20;5.40;99.90
22544;DHT22;11438;52.044;8.716;2024-01-15T09:41:47;5.40;99.90
22544;DHT22;11438;52.044;8.716;2024-01-15T09:44:13;5.40;99.90
22544;DHT22;11438;52.044;8.716;2024-01-15T09:46:40;5.40;99.90
22544;DHT22;11438;52.044;8.716;2024-01-15T09:49:06;5.40;99.90
22544;DHT22;11438;52.044;8.716;2024-01-15T09:51:32;5.40;99.90
22544;DHT22;11438;52.044;8.716;2024-01-15T09:53:58;5.40;99.90
22544;DHT22;11438;52.044;8.716;2024-01-15T09:56:24;5.40;99.90
22544;DHT22;11438;52.044;8.716;2024-01-15T09:58:50;5.30;99.90
22544;DHT22;11438;52.044;8.716;2024-01-15T10:01:20;5.30;99.90
22544;DHT22;11438;52.044;8.716;2024-01-15T10:03:46;5.30;99.90
22544;DHT22;11438;52.044;8.716;2024-01-15T10:06:15;5.30;99.90
22544;DHT22;11438;52.044;8.716;2024-01-15T10:08:44;5.40;99.90
22544;DHT22;11438;52.044;8.716;2024-01-15T10:11:12;5.40;99.90
22544;DHT22;11438;52.044;8.716;2024-01-15T10:13:38;5.40;99.90
22544;DHT22;11438;52.044;8.716;2024-01-15T10:16:04;5.40;99.90
22544;DHT22;11438;52.044;8.716;2024-01-15T10:18:30;5.40;99.90
22544;DHT22;11438;52.044;8.716;2024-01-15T10:20:56;5.50;99.90
22544;DHT22;11438;52.044;8.716;2024-01-15T10:23:23;5.50;99.90
22544;DHT22;11438;52.044;8.716;2024-01-15T10:25:49;5.50;99.90
22544;DHT22;11438;52.044;8.716;2024-01-15T10:28:14;5.60;99.90
22544;DHT22;11438;52.044;8.716;2024-01-15T10:30:40;5.60;99.90
22544;DHT22;11438;52.044;8.716;2024-01-15T10:33:05;5.60;99.90
22544;DHT22;11438;52.044;8.716;2024-01-15T10:35:32;5.70;99.90
22544;DHT22;11438;52.044;8.716;2024-01-15T10:37:59;5.70;99.90
22544;DHT22;11438;52.044;8.716;2024-01-15T10:40:25;5.70;99.90
22544;DHT22;11438;52.044;8.716;2024-01-15T10:42:50;5.70;99.90
22544;DHT22;11438;52.044;8.716;2024-01-15T10:45:17;5.70;99.90
22544;DHT22;11438;52.044;8.716;2024-01-15T10:47:42;5.80;99.90
22544;DHT22;11438;52.044;8.716;2024-01-15T10:50:09;5.70;99.90
22544;DHT22;11438;52.044;8.716;2024-01-15T10:52:39;5.70;99.90
22544;DHT22;11438;52.044;8.716;2024-01-15T10:55:09;5.70;99.90
22544;DHT22;11438;52.044;8.716;2024-01-15T10:57:36;5.70;99.90
22544;DHT22;11438;52.044;8.716;2024-01-15T11:00:03;5.80;99.90
22544;DHT22;11438;52.044;8.716;2024-01-15T11:02:34;5.80;99.90
22544;DHT22;11438;52.044;8.716;2024-01-15T11:05:06;5.80;99.90
22544;DHT22;11438;52.044;8.716;2024-01-15T11:07:31;5.80;99.90
22544;DHT22;11438;52.044;8.716;2024-01-15T11:09:57;5.80;99.90
22544;DHT22;11438;52.044;8.716;2024-01-15T11:12:25;5.80;99.90
22544;DHT22;11438;52.044;8.716;2024-01-15T11:14:51;5.90;99.90
22544;DHT22;11438;52.044;8.716;2024-01-15T11:17:19;5.90;99.90
22544;DHT22;11438;52.044;8.716;2024-01-15T11:19:47;5.90;99.90
22544;DHT22;11438;52.044;8.716;2024-01-15T11:25:01;5.90;99.90
22544;DHT22;11438;52.044;8.716;2024-01-15T11:27:40;5.90;99.90
22544;DHT22;11438;52.044;8.716;2024-01-15T11:30:11;5.90;99.90
22544;DHT22;11438;52.044;8.716;2024-01-15T11:32:37;5.90;99.90
22544;DHT22;11438;52.044;8.716;2024-01-15T11:35:07;5.90;99.90
22544;DHT22;11438;52.044;8.716;2024-01-15T11:40:21;5.90;99.90
22544;DHT22;11438;52.044;8.716;2024-01-15T11:42:47;5.90;99.90
22544;DHT22;11438;52.044;8.716;2024-01-15T11:45:22;5.90;99.90
22544;DHT22;11438;52.044;8.716;2024-01-15T11:48:09;5.90;99.90
22544;DHT22;11438;52.044;8.716;2024-01-15T11:50:39;5.90;99.90
22544;DHT22;11438;52.044;8.716;2024-01-15T11:53:10;6.00;99.90
22544;DHT22;11438;52.044;8.716;2024-01-15T11:55:43;5.90;99.90
22544;DHT22;11438;52.044;8.716;2024-01-15T11:58:10;6.00;99.90
22544;DHT22;11438;52.044;8.716;2024-01-15T12:00:44;6.00;99.90
22544;DHT22;11438;52.044;8.716;2024-01-15T12:03:10;6.00;99.90
22544;DHT22;11438;52.044;8.716;2024-01-15T12:05:37;6.00;99.90
22544;DHT22;11438;52.044;8.716;2024-01-15T12:08:03;6.00;99.90
22544;DHT22;11438;52.044;8.716;2024-01-15T12:10:35;6.00;99.90
22544;DHT22;11438;52.044;8.716;2024-01-15T12:13:14;6.00;99.90
22544;DHT22;11438;52.044;8.716;2024-01-15T12:15:42;6.00;99.90
22544;DHT22;11438;52.044;8.716;2024-01-15T12:18:09;6.00;99.90
22544;DHT22;11438;52.044;8.716;2024-01-15T12:20:35;6.00;99.90
22544;DHT22;11438;52.044;8.716;2024-01-15T12:23:02;6.10;99.90
22544;DHT22;11438;52.044;8.716;2024-01-15T12:25:32;6.00;99.90
22544;DHT22;11438;52.044;8.716;2024-01-15T12:27:59;6.10;99.90
22544;DHT22;11438;52.044;8.716;2024-01-15T12:30:30;6.10;99.90
22544;DHT22;11438;52.044;8.716;2024-01-15T12:32:58;6.10;99.90
22544;DHT22;11438;52.044;8.716;2024-01-15T12:35:26;6.10;99.90
22544;DHT22;11438;52.044;8.716;2024-01-15T12:37:54;6.10;99.90
22544;DHT22;11438;52.044;8.716;2024-01-15T12:40:20;6.00;99.90
22544;DHT22;11438;52.044;8.716;2024-01-15T12:42:46;6.00;99.90
22544;DHT22;11438;52.044;8.716;2024-01-15T12:45:12;6.00;99.90
22544;DHT22;11438;52.044;8.716;2024-01-15T12:47:39;6.00;99.90
22544;DHT22;11438;52.044;8.716;2024-01-15T12:50:12;6.00;99.90
22544;DHT22;11438;52.044;8.716;2024-01-15T12:52:38;6.00;99.90
22544;DHT22;11438;52.044;8.716;2024-01-15T12:55:06;6.00;99.90
22544;DHT22;11438;52.044;8.716;2024-01-15T12:57:32;6.00;99.90
22544;DHT22;11438;52.044;8.716;2024-01-15T12:59:58;6.00;99.90
22544;DHT22;11438;52.044;8.716;2024-01-15T13:02:23;6.10;99.90
22544;DHT22;11438;52.044;8.716;2024-01-15T13:04:49;6.10;99.90
22544;DHT22;11438;52.044;8.716;2024-01-15T13:07:14;6.10;99.90
22544;DHT22;11438;52.044;8.716;2024-01-15T13:09:40;6.10;99.90
22544;DHT22;11438;52.044;8.716;2024-01-15T13:12:06;6.10;99.90
22544;DHT22;11438;52.044;8.716;2024-01-15T13:14:31;6.10;99.90
22544;DHT22;11438;52.044;8.716;2024-01-15T13:16:58;6.10;99.90
22544;DHT22;11438;52.044;8.716;2024-01-15T13:19:24;6.10;99.90
22544;DHT22;11438;52.044;8.716;2024-01-15T13:21:50;6.10;99.90
22544;DHT22;11438;52.044;8.716;2024-01-15T13:24:17;6.10;99.90
22544;DHT22;11438;52.044;8.716;2024-01-15T13:26:42;6.10;99.90
22544;DHT22;11438;52.044;8.716;2024-01-15T13:29:08;6.20;99.90
22544;DHT22;11438;52.044;8.716;2024-01-15T13:31:33;6.20;99.90
22544;DHT22;11438;52.044;8.716;2024-01-15T13:33:59;6.20;99.90
22544;DHT22;11438;52.044;8.716;2024-01-15T13:36:26;6.20;99.90
22544;DHT22;11438;52.044;8.716;2024-01-15T13:38:52;6.20;99.90
22544;DHT22;11438;52.044;8.716;2024-01-15T13:41:19;6.20;99.90
22544;DHT22;11438;52.044;8.716;2024-01-15T13:43:47;6.20;99.90
22544;DHT22;11438;52.044;8.716;2024-01-15T13:46:13;6.20;99.90
22544;DHT22;11438;52.044;8.716;2024-01-15T13:48:38;6.20;99.90
22544;DHT22;11438;52.044;8.716;2024-01-15T13:51:04;6.20;99.90
22544;DHT22;11438;52.044;8.716;2024-01-15T13:53:29;6.20;99.90
22544;DHT22;11438;52.044;8.716;2024-01-15T13:55:55;6.20;99.90
22544;DHT22;11438;52.044;8.716;2024-01-15T13:58:20;6.20;99.90
22544;DHT22;11438;52.044;8.716;2024-01-15T14:00:47;6.20;99.90
22544;DHT22;11438;52.044;8.716;2024-01-15T14:03:12;6.20;99.90
22544;DHT22;11438;52.044;8.716;2024-01-15T14:05:38;6.20;99.90
22544;DHT22;11438;52.044;8.716;2024-01-15T14:08:04;6.20;99.90
22544;DHT22;11438;52.044;8.716;2024-01-15T14:10:29;6.20;99.90
22544;DHT22;11438;52.044;8.716;2024-01-15T14:12:55;6.20;99.90
22544;DHT22;11438;52.044;8.716;2024-01-15T14:15:20;6.20;99.90
22544;DHT22;11438;52.044;8.716;2024-01-15T14:17:47;6.20;99.90
22544;DHT22;11438;52.044;8.716;2024-01-15T14:20:12;6.20;99.90
22544;DHT22;11438;52.044;8.716;2024-01-15T14:22:38;6.20;99.90
22544;DHT22;11438;52.044;8.716;2024-01-15T14:25:04;6.20;99.90
22544;DHT22;11438;52.044;8.716;2024-01-15T14:27:29;6.10;99.90
22544;DHT22;11438;52.044;8.716;2024-01-15T14:29:55;6.10;99.90
22544;DHT22;11438;52.044;8.716;2024-01-15T14:32:20;6.10;99.90
22544;DHT22;11438;52.044;8.716;2024-01-15T14:34:46;6.10;99.90
22544;DHT22;11438;52.044;8.716;2024-01-15T14:37:12;6.00;99.90
22544;DHT22;11438;52.044;8.716;2024-01-15T14:39:37;6.00;99.90
22544;DHT22;11438;52.044;8.716;2024-01-15T14:42:03;6.00;99.90
22544;DHT22;11438;52.044;8.716;2024-01-15T14:44:28;5.90;99.90
22544;DHT22;11438;52.044;8.716;2024-01-15T14:46:54;5.90;99.90
22544;DHT22;11438;52.044;8.716;2024-01-15T14:49:21;5.90;99.90
22544;DHT22;11438;52.044;8.716;2024-01-15T14:51:46;5.90;99.90
22544;DHT22;11438;52.044;8.716;2024-01-15T14:54:12;5.90;99.90
22544;DHT22;11438;52.044;8.716;2024-01-15T14:56:38;5.80;99.90
22544;DHT22;11438;52.044;8.716;2024-01-15T14:59:03;5.80;99.90
22544;DHT22;11438;52.044;8.716;2024-01-15T15:01:28;5.80;99.90
22544;DHT22;11438;52.044;8.716;2024-01-15T15:03:55;5.80;99.90
22544;DHT22;11438;52.044;8.716;2024-01-15T15:06:20;5.70;99.90
22544;DHT22;11438;52.044;8.716;2024-01-15T15:08:46;5.70;99.90
22544;DHT22;11438;52.044;8.716;2024-01-15T15:11:12;5.70;99.90
22544;DHT22;11438;52.044;8.716;2024-01-15T15:13:37;5.70;99.90
22544;DHT22;11438;52.044;8.716;2024-01-15T15:16:03;5.70;99.90
22544;DHT22;11438;52.044;8.716;2024-01-15T15:18:28;5.60;99.90
22544;DHT22;11438;52.044;8.716;2024-01-15T15:20:55;5.60;99.90
22544;DHT22;11438;52.044;8.716;2024-01-15T15:23:21;5.60;99.90
22544;DHT22;11438;52.044;8.716;2024-01-15T15:25:47;5.60;99.90
22544;DHT22;11438;52.044;8.716;2024-01-15T15:28:12;5.50;99.90
22544;DHT22;11438;52.044;8.716;2024-01-15T15:30:39;5.50;99.90
22544;DHT22;11438;52.044;8.716;2024-01-15T15:33:05;5.50;99.90
22544;DHT22;11438;52.044;8.716;2024-01-15T15:35:30;5.50;99.90
22544;DHT22;11438;52.044;8.716;2024-01-15T15:37:56;5.40;99.90
22544;DHT22;11438;52.044;8.716;2024-01-15T15:40:21;5.40;99.90
22544;DHT22;11438;52.044;8.716;2024-01-15T15:42:48;5.40;99.90